Time;durP1;ratioP1;P1;durP2;ratioP2;P2;SDS_P1;SDS_P2;PMS_P1;PMS_P2;Temp;Humidity;BMP_temperature;BMP_pressure;BME280_temperature;BME280_humidity;BME280_pressure;Samples;Min_cycle;Max_cycle;Signal;HPM_P1;HPM_P2
2022/07/12 00:01:24;;;;;;;1.07;1.07;;;;;;;19.22;70.89;96052.75;4336764;32;20218;-66
2022/07/12 00:03:49;;;;;;;0.90;0.90;;;;;;;19.30;71.86;96048.41;4359628;32;20242;-62
2022/07/12 00:06:16;;;;;;;0.60;0.60;;;;;;;19.23;71.01;96048.94;4358122;32;20200;-62
2022/07/12 00:08:43;;;;;;;0.60;0.60;;;;;;;19.27;72.53;96048.28;4344063;32;20208;-61
2022/07/12 00:11:10;;;;;;;0.60;0.60;;;;;;;19.29;71.71;96043.38;4357849;32;20201;-61
2022/07/12 00:13:36;;;;;;;0.40;0.40;;;;;;;19.32;71.55;96048.09;4373714;32;20205;-62
2022/07/12 00:16:05;;;;;;;1.30;1.20;;;;;;;19.25;72.59;96050.50;4368994;32;20207;-61
2022/07/12 00:18:31;;;;;;;0.63;0.63;;;;;;;19.27;71.35;96053.66;4340665;32;20236;-61
2022/07/12 00:20:57;;;;;;;0.50;0.50;;;;;;;19.26;71.88;96054.78;4332205;32;20236;-62
2022/07/12 00:23:24;;;;;;;0.73;0.73;;;;;;;19.19;71.36;96050.72;4324636;32;20228;-62
2022/07/12 00:25:52;;;;;;;0.67;0.67;;;;;;;19.29;71.62;96049.53;4359479;32;20216;-66
2022/07/12 00:28:19;;;;;;;0.87;0.87;;;;;;;19.23;72.34;96054.31;4353837;32;20196;-62
2022/07/12 00:30:45;;;;;;;1.60;1.03;;;;;;;19.20;71.71;96043.44;4350077;32;20189;-62
2022/07/12 00:33:11;;;;;;;0.40;0.40;;;;;;;19.23;72.85;96050.84;4325155;32;20284;-62
2022/07/12 00:35:40;;;;;;;0.70;0.70;;;;;;;19.20;73.36;96052.28;4350676;32;20273;-62
2022/07/12 00:38:07;;;;;;;1.37;1.27;;;;;;;19.22;72.97;96050.06;4327988;32;20206;-62
2022/07/12 00:40:34;;;;;;;0.93;0.93;;;;;;;19.17;73.09;96052.94;4325524;32;20210;-62
2022/07/12 00:43:01;;;;;;;0.50;0.50;;;;;;;19.17;72.85;96054.84;4333256;32;20351;-62
2022/07/12 00:45:28;;;;;;;0.50;0.50;;;;;;;19.22;73.40;96054.66;4341502;32;20266;-61
2022/07/12 00:48:06;;;;;;;0.70;0.70;;;;;;;19.24;72.52;96055.13;4337589;32;20208;-62
2022/07/12 00:50:33;;;;;;;0.90;0.90;;;;;;;19.19;72.96;96055.31;4352118;32;20207;-62
2022/07/12 00:53:00;;;;;;;1.50;1.17;;;;;;;19.11;73.49;96048.91;4353207;32;20188;-61
2022/07/12 00:55:27;;;;;;;0.63;0.63;;;;;;;19.07;73.92;96058.75;4343851;32;20201;-61
2022/07/12 00:57:53;;;;;;;0.93;0.93;;;;;;;19.14;74.02;96055.50;4351392;32;20289;-61
2022/07/12 01:00:25;;;;;;;0.60;0.60;;;;;;;19.07;74.08;96052.56;4357763;32;20201;-61
2022/07/12 01:02:54;;;;;;;0.67;0.67;;;;;;;19.03;74.55;96054.34;4367990;32;20204;-62
2022/07/12 01:05:19;;;;;;;0.60;0.60;;;;;;;19.06;74.36;96053.69;4340620;32;20196;-61
2022/07/12 01:07:45;;;;;;;0.50;0.50;;;;;;;19.06;74.20;96051.78;4375744;32;20222;-61
2022/07/12 01:10:12;;;;;;;0.90;0.90;;;;;;;19.00;74.10;96047.72;4371614;32;20193;-61
2022/07/12 01:12:41;;;;;;;0.47;0.47;;;;;;;19.01;74.66;96049.28;4361870;32;20201;-61
2022/07/12 01:15:09;;;;;;;0.40;0.40;;;;;;;19.10;74.55;96047.31;4330984;32;20237;-61
2022/07/12 01:17:36;;;;;;;0.50;0.50;;;;;;;18.94;74.85;96059.78;4339864;32;20211;-65
2022/07/12 01:20:06;;;;;;;0.80;0.80;;;;;;;18.88;74.76;96058.41;4326546;32;20201;-61
2022/07/12 01:22:36;;;;;;;0.93;0.90;;;;;;;19.01;74.77;96053.87;4352832;32;20230;-61
2022/07/12 01:25:06;;;;;;;0.30;0.30;;;;;;;18.99;74.56;96051.50;4358686;32;20185;-61
2022/07/12 01:27:35;;;;;;;0.53;0.53;;;;;;;18.93;74.60;96052.03;4365534;32;20192;-61
2022/07/12 01:30:04;;;;;;;0.77;0.77;;;;;;;18.92;74.48;96056.62;4292384;32;20198;-61
2022/07/12 01:32:34;;;;;;;0.77;0.77;;;;;;;18.97;75.10;96053.75;4308907;32;20245;-60
2022/07/12 01:35:04;;;;;;;1.70;0.70;;;;;;;19.03;74.77;96052.44;4354018;32;20193;-61
2022/07/12 01:37:34;;;;;;;0.53;0.53;;;;;;;19.05;74.54;96054.81;4339147;32;20204;-60
2022/07/12 01:40:01;;;;;;;0.50;0.50;;;;;;;18.99;75.26;96058.78;4333011;32;20205;-61
2022/07/12 01:42:32;;;;;;;0.50;0.50;;;;;;;18.86;75.69;96056.06;4318353;32;20257;-61
2022/07/12 01:45:00;;;;;;;0.83;0.70;;;;;;;18.90;75.82;96050.81;4348475;32;20189;-61
2022/07/12 01:47:38;;;;;;;0.83;0.83;;;;;;;18.87;75.35;96043.41;4323757;32;20219;-61
2022/07/12 01:50:09;;;;;;;1.17;1.07;;;;;;;18.91;75.61;96047.00;4321577;32;20205;-61
2022/07/12 01:52:41;;;;;;;0.50;0.50;;;;;;;18.83;75.67;96045.16;4357871;32;20200;-61
2022/07/12 01:55:18;;;;;;;0.67;0.67;;;;;;;18.77;76.08;96046.47;4345923;32;20330;-61
2022/07/12 01:57:46;;;;;;;1.17;0.93;;;;;;;18.74;76.05;96044.44;4332320;32;20301;-61
2022/07/12 02:00:18;;;;;;;0.93;0.70;;;;;;;18.62;76.51;96050.53;4329647;32;20197;-61
2022/07/12 02:02:47;;;;;;;0.70;0.70;;;;;;;18.72;76.58;96058.19;4353821;32;20197;-61
2022/07/12 02:05:15;;;;;;;1.70;0.77;;;;;;;18.72;76.70;96052.03;4333253;32;20233;-61
2022/07/12 02:07:42;;;;;;;0.90;0.83;;;;;;;18.79;76.28;96057.69;4356301;32;20299;-61
2022/07/12 02:10:09;;;;;;;0.93;0.93;;;;;;;18.73;76.41;96058.97;4362638;32;20230;-61
2022/07/12 02:12:36;;;;;;;0.80;0.80;;;;;;;18.61;76.74;96056.22;4336669;32;20213;-61
2022/07/12 02:15:10;;;;;;;0.63;0.63;;;;;;;18.71;76.79;96045.87;4350689;32;20255;-61
2022/07/12 02:17:38;;;;;;;0.30;0.30;;;;;;;18.72;76.71;96044.75;4357519;32;20207;-61
2022/07/12 02:20:09;;;;;;;1.40;1.03;;;;;;;18.60;76.91;96047.38;4363345;32;20242;-61
2022/07/12 02:22:34;;;;;;;0.93;0.93;;;;;;;18.45;77.79;96050.59;4353649;32;20220;-61
2022/07/12 02:25:00;;;;;;;0.90;0.90;;;;;;;18.53;77.54;96045.16;4350198;32;20194;-61
2022/07/12 02:27:26;;;;;;;0.90;0.90;;;;;;;18.66;77.01;96045.28;4330310;32;20197;-63
2022/07/12 02:29:54;;;;;;;3.73;0.80;;;;;;;18.67;77.24;96049.56;4362924;32;20215;-62
2022/07/12 02:32:23;;;;;;;12.43;1.87;;;;;;;18.55;76.91;96037.56;4365219;32;20193;-67
2022/07/12 02:34:49;;;;;;;0.60;0.60;;;;;;;18.50;77.31;96040.44;4362135;32;20212;-61
2022/07/12 02:37:16;;;;;;;0.87;0.73;;;;;;;18.44;77.66;96044.44;4341228;32;20208;-61
2022/07/12 02:39:42;;;;;;;1.53;1.53;;;;;;;18.47;77.99;96038.44;4364534;32;20279;-61
2022/07/12 02:42:09;;;;;;;2.70;1.20;;;;;;;18.31;78.00;96053.50;4334276;32;20194;-61
2022/07/12 02:44:36;;;;;;;1.53;0.90;;;;;;;18.35;78.28;96048.28;4352845;32;20200;-61
2022/07/12 02:47:07;;;;;;;4.73;0.77;;;;;;;18.43;78.38;96050.94;4295421;32;20216;-61
2022/07/12 02:49:33;;;;;;;2.53;0.53;;;;;;;18.31;78.71;96044.66;4357139;32;20189;-61
2022/07/12 02:52:00;;;;;;;0.70;0.53;;;;;;;18.29;78.83;96042.31;4281858;32;20272;-61
2022/07/12 02:54:26;;;;;;;1.20;1.20;;;;;;;18.20;78.92;96046.94;4316825;32;20209;-61
2022/07/12 02:56:51;;;;;;;1.40;1.33;;;;;;;18.23;78.85;96051.66;4340644;32;20294;-63
2022/07/12 02:59:18;;;;;;;1.93;1.37;;;;;;;18.27;78.60;96051.81;4355568;32;20213;-60
2022/07/12 03:01:43;;;;;;;0.60;0.60;;;;;;;18.18;78.87;96046.47;4309420;32;20196;-61
2022/07/12 03:04:09;;;;;;;2.00;1.27;;;;;;;18.14;78.46;96037.47;4365421;32;20189;-60
2022/07/12 03:06:34;;;;;;;1.00;1.00;;;;;;;18.07;79.16;96043.38;4365849;32;20197;-61
2022/07/12 03:09:01;;;;;;;0.80;0.80;;;;;;;18.04;79.50;96044.03;4380067;32;20184;-61
2022/07/12 03:11:28;;;;;;;0.60;0.47;;;;;;;18.09;79.27;96041.12;4354058;32;20254;-61
2022/07/12 03:13:54;;;;;;;0.87;0.87;;;;;;;18.18;79.34;96044.59;4346193;32;20269;-61
2022/07/12 03:16:23;;;;;;;2.10;0.90;;;;;;;18.12;79.29;96045.06;4338205;32;20196;-61
2022/07/12 03:18:50;;;;;;;0.93;0.93;;;;;;;18.13;78.78;96050.12;4345735;32;20202;-61
2022/07/12 03:21:16;;;;;;;1.30;1.20;;;;;;;18.11;79.20;96051.56;4320299;32;20189;-61
2022/07/12 03:23:44;;;;;;;0.70;0.70;;;;;;;18.18;79.25;96054.53;4335824;32;20204;-62
2022/07/12 03:26:10;;;;;;;0.60;0.60;;;;;;;18.20;79.11;96052.31;4338480;32;20192;-61
2022/07/12 03:28:36;;;;;;;0.87;0.87;;;;;;;18.19;79.16;96048.06;4352652;32;20200;-61
2022/07/12 03:31:08;;;;;;;1.23;1.23;;;;;;;18.19;79.05;96050.75;4357146;32;20256;-61
2022/07/12 03:33:38;;;;;;;1.30;1.30;;;;;;;18.08;79.08;96054.91;4350772;32;20189;-61
2022/07/12 03:36:08;;;;;;;1.07;1.03;;;;;;;17.99;79.88;96062.19;4337083;32;20211;-61
2022/07/12 03:38:36;;;;;;;1.57;1.43;;;;;;;18.11;79.32;96059.59;4351061;32;20208;-61
2022/07/12 03:41:05;;;;;;;2.33;1.17;;;;;;;18.06;79.67;96057.12;4327082;32;20189;-61
2022/07/12 03:43:32;;;;;;;0.93;0.93;;;;;;;18.12;79.23;96061.97;4337519;32;20201;-61
2022/07/12 03:46:01;;;;;;;0.80;0.80;;;;;;;18.07;79.59;96061.41;4346393;32;20200;-61
2022/07/12 03:48:30;;;;;;;0.50;0.50;;;;;;;18.02;79.93;96062.34;4319114;32;20212;-61
2022/07/12 03:50:57;;;;;;;0.67;0.67;;;;;;;18.08;79.73;96071.03;4361635;32;20238;-61
2022/07/12 03:53:23;;;;;;;1.13;1.13;;;;;;;18.10;79.51;96060.72;4358023;32;20233;-61
2022/07/12 03:55:52;;;;;;;0.80;0.80;;;;;;;18.24;78.99;96066.69;4343425;32;20211;-61
2022/07/12 03:58:18;;;;;;;0.87;0.87;;;;;;;18.16;78.99;96070.19;4357111;32;20267;-61
2022/07/12 04:00:44;;;;;;;0.57;0.57;;;;;;;18.16;79.28;96072.88;4341941;32;20390;-61
2022/07/12 04:03:12;;;;;;;0.63;0.63;;;;;;;18.16;79.13;96075.56;4346701;32;20215;-61
2022/07/12 04:05:40;;;;;;;0.77;0.77;;;;;;;18.15;78.72;96072.09;4358016;32;20239;-61
2022/07/12 04:08:06;;;;;;;3.23;0.67;;;;;;;18.05;79.50;96082.41;4354440;32;20189;-61
2022/07/12 04:10:34;;;;;;;1.20;1.20;;;;;;;18.13;79.39;96084.25;4356721;32;20211;-61
2022/07/12 04:13:02;;;;;;;0.80;0.80;;;;;;;18.12;78.76;96080.00;4341275;32;20200;-61
2022/07/12 04:15:29;;;;;;;0.90;0.90;;;;;;;18.16;78.84;96078.25;4358886;32;20239;-61
2022/07/12 04:17:55;;;;;;;1.03;1.03;;;;;;;18.03;78.99;96080.03;4358694;32;20181;-61
2022/07/12 04:20:22;;;;;;;0.80;0.80;;;;;;;18.11;78.86;96081.09;4319907;32;20201;-63
2022/07/12 04:22:49;;;;;;;0.43;0.43;;;;;;;18.02;78.79;96083.03;4315690;32;20221;-61
2022/07/12 04:25:16;;;;;;;0.73;0.73;;;;;;;18.01;79.24;96086.84;4348860;32;20189;-61
2022/07/12 04:27:43;;;;;;;0.53;0.53;;;;;;;18.10;79.04;96090.25;4328410;32;20193;-61
2022/07/12 04:30:13;;;;;;;0.50;0.50;;;;;;;17.99;79.33;96084.47;4305789;32;20291;-61
2022/07/12 04:32:39;;;;;;;0.43;0.43;;;;;;;17.99;79.18;96086.38;4320952;32;20204;-61
2022/07/12 04:35:07;;;;;;;1.03;1.03;;;;;;;18.07;79.49;96080.19;4330498;32;20205;-61
2022/07/12 04:37:33;;;;;;;1.10;1.00;;;;;;;18.16;79.22;96078.25;4326140;32;20205;-61
2022/07/12 04:40:00;;;;;;;1.07;0.97;;;;;;;18.20;78.94;96074.59;4345449;32;20275;-61
2022/07/12 04:42:35;;;;;;;0.60;0.60;;;;;;;18.26;78.90;96077.91;4342119;32;20194;-61
2022/07/12 04:45:00;;;;;;;0.50;0.50;;;;;;;18.25;78.81;96087.06;4341608;32;20210;-61
2022/07/12 04:47:27;;;;;;;1.10;1.10;;;;;;;18.09;79.12;96089.47;4326772;32;20177;-61
2022/07/12 04:49:55;;;;;;;1.43;1.13;;;;;;;18.10;79.11;96079.53;4332048;32;20264;-66
2022/07/12 04:52:20;;;;;;;0.70;0.70;;;;;;;18.16;79.56;96078.25;4345037;32;20173;-61
2022/07/12 04:54:46;;;;;;;1.63;1.10;;;;;;;18.11;79.12;96075.72;4299529;32;20181;-61
2022/07/12 04:57:13;;;;;;;1.20;1.20;;;;;;;18.14;79.44;96075.09;4334610;32;20200;-61
2022/07/12 04:59:39;;;;;;;1.30;1.30;;;;;;;17.97;79.28;96085.91;4327442;32;20192;-61
2022/07/12 05:02:04;;;;;;;1.10;1.10;;;;;;;18.07;79.42;96088.25;4298914;32;20177;-61
2022/07/12 05:04:33;;;;;;;1.70;1.60;;;;;;;18.10;79.52;96090.25;4300768;32;20239;-61
2022/07/12 05:07:00;;;;;;;1.60;1.50;;;;;;;18.04;79.31;96084.31;4315005;32;20185;-61
2022/07/12 05:09:27;;;;;;;0.47;0.47;;;;;;;18.05;79.34;96093.16;4318603;32;20178;-61
2022/07/12 05:11:53;;;;;;;1.23;1.23;;;;;;;18.07;78.92;96090.94;4346789;32;20186;-61
2022/07/12 05:14:20;;;;;;;0.90;0.90;;;;;;;17.98;79.67;96098.22;4334026;32;20271;-61
2022/07/12 05:16:46;;;;;;;1.47;1.07;;;;;;;18.03;79.04;96100.72;4359708;32;20189;-61
2022/07/12 05:19:13;;;;;;;1.27;1.27;;;;;;;18.03;78.79;96098.06;4313061;32;20182;-61
2022/07/12 05:21:42;;;;;;;1.10;1.10;;;;;;;17.95;78.96;96091.59;4343964;32;20197;-61
2022/07/12 05:24:09;;;;;;;1.57;1.47;;;;;;;18.04;79.75;96102.31;4353860;32;20254;-61
2022/07/12 05:26:36;;;;;;;1.10;1.10;;;;;;;18.12;80.08;96098.78;4342975;32;20211;-61
2022/07/12 05:29:03;;;;;;;0.63;0.63;;;;;;;18.08;79.27;96097.87;4344729;32;20201;-61
2022/07/12 05:31:31;;;;;;;0.93;0.93;;;;;;;18.10;79.46;96095.62;4340411;32;20208;-61
2022/07/12 05:33:56;;;;;;;1.40;1.30;;;;;;;18.08;79.68;96101.31;4365819;32;20184;-61
2022/07/12 05:36:24;;;;;;;4.53;1.60;;;;;;;18.23;79.29;96109.97;4328143;32;20198;-54
2022/07/12 05:38:50;;;;;;;3.47;1.23;;;;;;;18.42;79.51;96108.47;4326155;32;20190;-46
2022/07/12 05:41:16;;;;;;;2.43;1.73;;;;;;;18.72;76.71;96111.16;4320966;32;20243;-42
2022/07/12 05:43:43;;;;;;;6.80;2.03;;;;;;;19.03;74.72;96108.91;4314742;32;20219;-43
2022/07/12 05:46:16;;;;;;;1.00;1.00;;;;;;;19.36;72.95;96113.56;4339192;32;20189;-45
2022/07/12 05:48:42;;;;;;;3.67;1.77;;;;;;;19.56;71.81;96108.19;4341114;32;20191;-44
2022/07/12 05:53:54;;;;;;;0.83;0.83;;;;;;;19.82;70.42;96116.00;4324270;32;20204;-43
2022/07/12 05:56:20;;;;;;;1.60;1.03;;;;;;;19.83;70.06;96122.97;4360423;32;20177;-44
2022/07/12 05:58:47;;;;;;;0.83;0.83;;;;;;;19.87;69.53;96123.09;4331843;32;20189;-44
2022/07/12 06:01:12;;;;;;;0.87;0.87;;;;;;;19.93;69.44;96126.38;4346131;32;20230;-45
2022/07/12 06:03:39;;;;;;;1.13;1.13;;;;;;;19.92;69.12;96127.50;4353475;32;20196;-44
2022/07/12 06:06:05;;;;;;;1.20;1.10;;;;;;;19.95;70.74;96133.00;4349841;32;20207;-44
2022/07/12 06:08:36;;;;;;;0.50;0.50;;;;;;;20.00;70.14;96132.78;4350984;32;20189;-45
2022/07/12 06:11:05;;;;;;;1.37;1.30;;;;;;;20.06;69.74;96142.22;4342216;32;20197;-44
2022/07/12 06:13:30;;;;;;;1.73;0.80;;;;;;;20.09;69.46;96141.56;4334473;32;20223;-60
2022/07/12 06:15:57;;;;;;;1.33;1.23;;;;;;;19.81;69.35;96144.06;4343769;32;20189;-60
2022/07/12 06:18:23;;;;;;;1.47;1.37;;;;;;;19.73;69.99;96144.16;4342916;32;20193;-60
2022/07/12 06:20:48;;;;;;;0.87;0.87;;;;;;;19.59;70.89;96132.88;4310326;32;20202;-59
2022/07/12 06:23:15;;;;;;;6.43;1.63;;;;;;;19.43;71.13;96138.06;4336561;32;20280;-59
2022/07/12 06:25:42;;;;;;;0.60;0.60;;;;;;;19.27;72.03;96137.88;4356874;32;20200;-59
2022/07/12 06:28:08;;;;;;;0.90;0.90;;;;;;;19.14;71.97;96138.91;4354105;32;20236;-59
2022/07/12 06:30:36;;;;;;;2.40;2.30;;;;;;;19.12;71.83;96141.91;4290336;32;20349;-59
2022/07/12 06:33:02;;;;;;;1.00;0.73;;;;;;;19.02;72.26;96145.00;4329170;32;20192;-60
2022/07/12 06:35:28;;;;;;;0.63;0.63;;;;;;;19.15;72.06;96146.63;4334603;32;20232;-60
2022/07/12 06:37:54;;;;;;;2.53;1.77;;;;;;;19.23;71.26;96142.31;4332164;32;20316;-60
2022/07/12 06:40:21;;;;;;;0.50;0.50;;;;;;;19.30;71.56;96144.50;4358822;32;20223;-60
2022/07/12 06:42:49;;;;;;;2.07;1.97;;;;;;;19.18;71.46;96139.81;4347800;32;20189;-59
2022/07/12 06:45:15;;;;;;;0.87;0.87;;;;;;;19.32;70.67;96142.28;4318893;32;20276;-60
2022/07/12 06:47:41;;;;;;;0.73;0.73;;;;;;;19.28;70.95;96150.22;4335294;32;20291;-60
2022/07/12 06:50:19;;;;;;;0.93;0.93;;;;;;;19.35;71.12;96149.66;4342803;32;20227;-60
2022/07/12 06:52:45;;;;;;;0.53;0.53;;;;;;;19.28;70.58;96146.72;4354931;32;20192;-60
2022/07/12 06:55:13;;;;;;;1.07;1.07;;;;;;;19.30;71.03;96144.50;4297138;32;21304;-60
2022/07/12 06:57:40;;;;;;;0.40;0.40;;;;;;;19.42;71.29;96139.94;4310751;32;20216;-60
2022/07/12 07:00:06;;;;;;;0.40;0.40;;;;;;;19.48;71.35;96143.25;4317873;32;20203;-60
2022/07/12 07:02:33;;;;;;;0.20;0.20;;;;;;;19.65;70.49;96136.94;4352129;32;20189;-60
2022/07/12 07:04:59;;;;;;;0.83;0.83;;;;;;;19.50;69.99;96136.44;4308701;32;20255;-60
2022/07/12 07:07:24;;;;;;;0.20;0.20;;;;;;;19.61;70.00;96134.13;4325861;32;20196;-60
2022/07/12 07:09:52;;;;;;;0.83;0.77;;;;;;;19.67;69.47;96132.81;4357212;32;20200;-62
2022/07/12 07:12:18;;;;;;;0.60;0.60;;;;;;;19.76;69.40;96138.09;4363853;32;20260;-60
2022/07/12 07:14:46;;;;;;;0.37;0.37;;;;;;;19.80;68.77;96136.31;4331426;32;20211;-61
2022/07/12 07:17:16;;;;;;;0.40;0.40;;;;;;;19.90;68.20;96142.09;4317282;32;20266;-60
2022/07/12 07:19:41;;;;;;;0.80;0.57;;;;;;;20.23;67.51;96143.94;4315785;32;20283;-60
2022/07/12 07:22:08;;;;;;;0.47;0.47;;;;;;;20.39;67.04;96141.41;4350348;32;20297;-60
2022/07/12 07:24:35;;;;;;;0.40;0.40;;;;;;;20.29;67.43;96142.59;4343699;32;20219;-60
2022/07/12 07:27:03;;;;;;;0.40;0.40;;;;;;;20.09;66.84;96144.25;4362284;32;20235;-60
2022/07/12 07:32:14;;;;;;;0.37;0.37;;;;;;;20.09;67.45;96146.16;4364394;32;20302;-60
2022/07/12 07:34:41;;;;;;;0.93;0.57;;;;;;;20.09;67.65;96146.97;4349770;32;20189;-60
2022/07/12 07:37:07;;;;;;;0.30;0.30;;;;;;;20.04;68.23;96138.28;4347050;32;20193;-60
2022/07/12 07:39:35;;;;;;;0.77;0.77;;;;;;;20.13;67.34;96147.09;4349879;32;20264;-60
2022/07/12 07:42:02;;;;;;;0.30;0.30;;;;;;;20.03;67.84;96152.87;4323596;32;20246;-60
2022/07/12 07:44:30;;;;;;;0.23;0.23;;;;;;;20.03;67.23;96152.87;4335954;32;20185;-60
2022/07/12 07:46:56;;;;;;;0.30;0.30;;;;;;;20.04;67.27;96151.75;4333529;32;20223;-60
2022/07/12 07:49:23;;;;;;;0.37;0.37;;;;;;;19.96;66.89;96150.72;4305468;32;20205;-61
2022/07/12 07:51:48;;;;;;;0.70;0.30;;;;;;;19.93;67.47;96159.50;4361758;32;20189;-60
2022/07/12 07:54:15;;;;;;;0.10;0.10;;;;;;;19.66;67.44;96160.06;4340762;32;20286;-60
2022/07/12 07:56:42;;;;;;;0.10;0.10;;;;;;;19.82;67.62;96153.72;4301458;32;20256;-60
2022/07/12 07:59:10;;;;;;;0.53;0.53;;;;;;;19.97;65.89;96157.69;4364304;32;20236;-60
2022/07/12 08:01:46;;;;;;;0.60;0.60;;;;;;;20.04;65.42;96154.47;4338175;32;20185;-60
2022/07/12 08:04:17;;;;;;;0.43;0.43;;;;;;;20.08;66.35;96155.38;4366454;32;20271;-60
2022/07/12 08:06:45;;;;;;;0.30;0.30;;;;;;;20.23;66.22;96152.03;4327716;32;20221;-60
2022/07/12 08:09:12;;;;;;;0.53;0.53;;;;;;;20.34;65.20;96157.78;4319050;32;20337;-60
2022/07/12 08:11:41;;;;;;;0.17;0.17;;;;;;;20.41;65.57;96155.34;4348503;32;20242;-60
2022/07/12 08:14:09;;;;;;;0.30;0.30;;;;;;;20.20;64.25;96158.06;4293672;32;20193;-59
2022/07/12 08:16:36;;;;;;;0.43;0.43;;;;;;;20.18;63.01;96152.22;4309345;32;20193;-60
2022/07/12 08:19:04;;;;;;;0.57;0.57;;;;;;;20.19;63.45;96162.69;4339071;32;20212;-60
2022/07/12 08:21:29;;;;;;;0.20;0.20;;;;;;;20.28;63.15;96156.41;4349494;32;20180;-60
2022/07/12 08:23:57;;;;;;;0.20;0.20;;;;;;;20.25;62.25;96160.56;4344109;32;20226;-60
2022/07/12 08:26:23;;;;;;;0.77;0.57;;;;;;;20.11;62.88;96160.09;4328754;32;20193;-60
2022/07/12 08:28:50;;;;;;;0.33;0.33;;;;;;;20.10;65.13;96163.91;4309081;32;20189;-59
2022/07/12 08:31:17;;;;;;;0.40;0.40;;;;;;;20.16;64.71;96162.59;4324979;32;20238;-60
2022/07/12 08:33:44;;;;;;;0.20;0.20;;;;;;;20.28;64.84;96156.41;4357939;32;20227;-60
2022/07/12 08:36:09;;;;;;;0.00;0.00;;;;;;;20.41;64.24;96153.44;4359534;32;20240;-59
2022/07/12 08:38:37;;;;;;;0.20;0.20;;;;;;;20.46;60.73;96164.00;4353861;32;20215;-60
2022/07/12 08:41:05;;;;;;;0.83;0.83;;;;;;;20.39;62.63;96165.66;4320767;32;20210;-59
2022/07/12 08:43:36;;;;;;;0.17;0.17;;;;;;;20.44;62.84;96166.25;4333952;32;20192;-60
2022/07/12 08:46:10;;;;;;;0.70;0.50;;;;;;;20.53;61.89;96166.16;4328093;32;20202;-60
2022/07/12 08:48:46;;;;;;;0.30;0.30;;;;;;;20.44;62.51;96171.62;4330730;32;20184;-59
2022/07/12 08:51:14;;;;;;;0.30;0.30;;;;;;;20.36;63.04;96179.81;4348956;32;20279;-60
2022/07/12 08:53:42;;;;;;;0.10;0.10;;;;;;;20.20;64.68;96172.34;4348774;32;20189;-60
2022/07/12 08:56:33;;;;;;;1.47;0.50;;;;;;;20.33;63.14;96175.06;4316930;32;20200;-60
2022/07/12 08:59:18;;;;;;;0.30;0.30;;;;;;;20.46;62.88;96172.09;4330534;32;20242;-61
2022/07/12 09:01:54;;;;;;;0.33;0.33;;;;;;;20.50;62.65;96177.59;4335748;32;20206;-60
2022/07/12 09:04:25;;;;;;;0.50;0.50;;;;;;;20.50;61.12;96172.22;4335149;32;20189;-60
2022/07/12 09:06:54;;;;;;;0.50;0.50;;;;;;;20.43;60.65;96170.06;4346595;32;20193;-60
2022/07/12 09:09:31;;;;;;;0.20;0.20;;;;;;;20.50;57.78;96181.09;4299055;32;20192;-60
2022/07/12 09:11:59;;;;;;;0.20;0.20;;;;;;;20.58;57.03;96180.19;4364388;32;20224;-60
2022/07/12 09:14:28;;;;;;;0.10;0.10;;;;;;;20.72;56.14;96181.78;4292739;32;20194;-61
2022/07/12 09:17:15;;;;;;;0.30;0.30;;;;;;;20.67;57.04;96190.06;4338354;32;20189;-60
2022/07/12 09:19:55;;;;;;;0.20;0.20;;;;;;;20.62;57.95;96190.28;4354195;32;20276;-60
2022/07/12 09:22:23;;;;;;;0.10;0.10;;;;;;;20.67;58.17;96190.06;4330399;32;20203;-63
2022/07/12 09:24:50;;;;;;;0.43;0.43;;;;;;;20.47;59.00;96184.44;4353999;32;20189;-60
2022/07/12 09:27:25;;;;;;;0.40;0.30;;;;;;;20.38;59.04;96191.81;4302337;32;20252;-60
2022/07/12 09:29:52;;;;;;;0.20;0.20;;;;;;;20.40;59.12;96189.59;4328518;32;20238;-65
2022/07/12 09:38:07;;;;;;;0.30;0.30;;;;;;;20.41;59.10;96175.00;4328759;32;20226;-61
2022/07/12 09:40:36;;;;;;;0.20;0.20;;;;;;;20.40;60.42;96188.81;4328670;32;20239;-61
2022/07/12 09:43:05;;;;;;;0.20;0.20;;;;;;;20.48;58.92;96194.09;4330570;32;20259;-60
2022/07/12 09:45:31;;;;;;;0.13;0.13;;;;;;;20.50;58.87;96191.88;4338617;32;20231;-61
2022/07/12 09:48:00;;;;;;;0.20;0.20;;;;;;;20.43;58.55;96191.63;4342893;32;20192;-61
2022/07/12 09:50:27;;;;;;;0.53;0.53;;;;;;;20.43;59.88;96193.53;4341214;32;20186;-61
2022/07/12 09:52:54;;;;;;;0.10;0.10;;;;;;;20.46;59.60;96200.94;4357901;32;20230;-61
2022/07/12 09:55:42;;;;;;;0.40;0.40;;;;;;;20.45;60.14;96197.47;4348556;32;20223;-61
2022/07/12 09:58:10;;;;;;;0.23;0.23;;;;;;;20.41;60.22;96190.37;4355906;32;20204;-60
2022/07/12 10:00:39;;;;;;;0.27;0.27;;;;;;;20.49;60.51;96201.06;4371331;32;20188;-60
2022/07/12 10:03:08;;;;;;;0.00;0.00;;;;;;;20.62;59.71;96190.28;4367243;32;20262;-61
2022/07/12 10:05:37;;;;;;;0.20;0.20;;;;;;;20.67;59.94;96200.88;4333787;32;20185;-61
2022/07/12 10:08:02;;;;;;;0.37;0.37;;;;;;;20.64;61.10;96190.75;4370344;32;20195;-60
2022/07/12 10:10:35;;;;;;;2.20;0.43;;;;;;;20.80;59.00;96199.75;4372860;32;20228;-61
2022/07/12 10:13:01;;;;;;;0.17;0.17;;;;;;;20.93;58.42;96204.03;4359224;32;20195;-60
2022/07/12 10:15:30;;;;;;;0.20;0.20;;;;;;;21.01;57.38;96208.50;4331684;32;20185;-61
2022/07/12 10:18:05;;;;;;;0.17;0.17;;;;;;;21.00;58.19;96206.94;4346282;32;20212;-61
2022/07/12 10:20:32;;;;;;;0.20;0.20;;;;;;;20.93;59.22;96201.34;4365880;32;20184;-61
2022/07/12 10:23:19;;;;;;;0.03;0.03;;;;;;;20.96;58.98;96197.97;4357401;32;20196;-61
2022/07/12 10:25:44;;;;;;;0.13;0.13;;;;;;;21.02;59.08;96204.69;4372523;32;20272;-61
2022/07/12 10:28:12;;;;;;;0.23;0.23;;;;;;;21.07;60.33;96204.47;4370843;32;20223;-61
2022/07/12 10:30:52;;;;;;;0.30;0.30;;;;;;;21.17;59.07;96198.63;4357711;32;20188;-61
2022/07/12 10:33:22;;;;;;;0.30;0.30;;;;;;;21.15;59.01;96202.78;4380920;32;20180;-61
2022/07/12 10:36:01;;;;;;;0.40;0.40;;;;;;;21.20;57.49;96203.34;4354195;32;20229;-61
2022/07/12 10:38:29;;;;;;;0.20;0.20;;;;;;;21.18;57.76;96197.50;4361580;32;20215;-61
2022/07/12 10:40:55;;;;;;;0.10;0.10;;;;;;;21.22;59.47;96195.69;4354866;32;20239;-61
2022/07/12 10:44:04;;;;;;;0.10;0.10;;;;;;;21.27;58.26;96194.69;4344848;32;20524;-64
2022/07/12 10:46:27;;;;;;;0.10;0.10;;;;;;;21.24;58.15;96200.75;4313940;32;20228;-60
2022/07/12 10:49:35;;;;;;;0.00;0.00;;;;;;;21.21;56.85;96204.91;4333896;32;20203;-61
2022/07/12 10:52:14;;;;;;;0.10;0.10;;;;;;;21.11;57.47;96213.47;4366806;32;20177;-61
2022/07/12 10:54:41;;;;;;;0.10;0.10;;;;;;;21.05;56.47;96211.31;4306669;32;20239;-60
2022/07/12 10:57:09;;;;;;;0.17;0.17;;;;;;;21.07;56.80;96209.88;4363864;32;20200;-61
2022/07/12 10:59:44;;;;;;;0.20;0.20;;;;;;;21.06;56.40;96194.78;4375389;32;20188;-60
2022/07/12 11:02:11;;;;;;;0.40;0.40;;;;;;;21.07;56.08;96203.69;4371230;32;20176;-61
2022/07/12 11:04:49;;;;;;;0.20;0.20;;;;;;;21.02;56.51;96195.81;4371468;32;20223;-61
2022/07/12 11:07:19;;;;;;;0.30;0.30;;;;;;;20.99;57.50;96197.25;4371765;32;20185;-61
2022/07/12 11:09:45;;;;;;;0.60;0.60;;;;;;;21.08;57.73;96194.47;4351865;32;20189;-61
2022/07/12 11:12:14;;;;;;;0.40;0.40;;;;;;;21.15;58.01;96192.78;4354172;32;21589;-60
2022/07/12 11:14:40;;;;;;;0.00;0.00;;;;;;;21.22;56.36;96200.31;4369558;32;20184;-61
2022/07/12 11:17:06;;;;;;;0.40;0.40;;;;;;;21.41;54.34;96194.31;4347277;32;20262;-61
2022/07/12 11:19:33;;;;;;;1.50;0.33;;;;;;;21.63;55.24;96199.22;4362730;32;20188;-61
2022/07/12 11:22:00;;;;;;;0.00;0.00;;;;;;;21.70;54.11;96195.94;4362858;32;20239;-61
2022/07/12 11:24:31;;;;;;;0.00;0.00;;;;;;;21.54;55.11;96198.56;4334959;32;20195;-61
2022/07/12 11:27:01;;;;;;;0.33;0.33;;;;;;;21.50;54.21;96190.37;4347043;32;20222;-61
2022/07/12 11:29:27;;;;;;;0.00;0.00;;;;;;;21.51;53.63;96191.94;4369885;32;20188;-62
2022/07/12 11:32:07;;;;;;;0.20;0.20;;;;;;;21.33;54.47;96195.25;4360410;32;20219;-61
2022/07/12 11:34:34;;;;;;;0.10;0.10;;;;;;;21.21;55.60;96180.63;4362917;32;20207;-61
2022/07/12 11:37:01;;;;;;;0.20;0.20;;;;;;;21.30;55.48;96185.91;4351933;32;20196;-61
2022/07/12 11:39:40;;;;;;;2.00;0.33;;;;;;;21.37;54.51;96182.66;4356513;32;20237;-60
2022/07/12 11:42:08;;;;;;;0.30;0.30;;;;;;;21.30;54.68;96185.13;4341348;32;20206;-60
2022/07/12 11:44:51;;;;;;;0.30;0.30;;;;;;;21.25;54.87;96184.22;4362240;32;20210;-60
2022/07/12 11:47:24;;;;;;;0.37;0.37;;;;;;;21.23;55.08;96181.06;4335166;32;20310;-60
2022/07/12 11:50:09;;;;;;;0.17;0.17;;;;;;;21.36;54.41;96168.34;4353687;32;20200;-60
2022/07/12 11:52:37;;;;;;;0.20;0.20;;;;;;;21.46;54.44;96175.19;4371184;32;20264;-60